createdAt,value
2023-01-11T00:00:26.538Z,8.53
2023-01-11T00:03:07.834Z,7.90
2023-01-11T00:05:42.378Z,8.50
2023-01-11T00:08:09.289Z,8.23
2023-01-11T00:10:36.350Z,8.50
2023-01-11T00:13:03.672Z,8.90
2023-01-11T00:15:30.483Z,9.07
2023-01-11T00:17:57.904Z,7.70
2023-01-11T00:20:25.299Z,8.90
2023-01-11T00:22:51.716Z,8.30
2023-01-11T00:25:18.592Z,8.53
2023-01-11T00:27:47.174Z,7.70
2023-01-11T00:30:14.443Z,9.00
2023-01-11T00:32:41.272Z,10.00
2023-01-11T00:35:09.163Z,8.60
2023-01-11T00:37:36.031Z,8.40
2023-01-11T00:40:05.524Z,8.27
2023-01-11T00:42:53.790Z,8.20
2023-01-11T00:45:39.182Z,7.90
2023-01-11T00:48:07.213Z,9.50
2023-01-11T00:50:36.455Z,9.00
2023-01-11T00:53:03.560Z,9.20
2023-01-11T00:55:32.093Z,11.50
2023-01-11T00:57:59.318Z,8.07
2023-01-11T01:00:27.384Z,7.90
2023-01-11T01:02:54.576Z,8.27
2023-01-11T01:05:21.373Z,8.60
2023-01-11T01:07:48.400Z,9.10
2023-01-11T01:10:17.526Z,8.10
2023-01-11T01:13:02.986Z,8.80
2023-01-11T01:15:29.580Z,7.87
2023-01-11T01:17:56.381Z,9.37
2023-01-11T01:20:24.646Z,9.20
2023-01-11T01:22:51.751Z,8.40
2023-01-11T01:25:18.491Z,12.83
2023-01-11T01:27:45.084Z,8.47
2023-01-11T01:30:12.004Z,7.97
2023-01-11T01:32:38.636Z,7.53
2023-01-11T01:35:05.343Z,7.90
2023-01-11T01:37:31.801Z,8.67
2023-01-11T01:39:58.329Z,8.50
2023-01-11T01:42:25.202Z,9.43
2023-01-11T01:44:56.859Z,8.70
2023-01-11T01:47:31.714Z,8.83
2023-01-11T01:50:04.695Z,8.40
2023-01-11T01:52:33.218Z,8.17
2023-01-11T01:55:03.135Z,8.93
2023-01-11T01:57:34.264Z,8.90
2023-01-11T02:00:05.121Z,8.00
2023-01-11T02:02:31.678Z,8.17
2023-01-11T02:04:58.723Z,9.80
2023-01-11T02:07:34.947Z,7.83
2023-01-11T02:10:09.187Z,8.00
2023-01-11T02:12:44.918Z,8.67
2023-01-11T02:15:13.101Z,8.80
2023-01-11T02:17:39.877Z,8.23
2023-01-11T02:20:35.664Z,8.10
2023-01-11T02:23:17.731Z,9.70
2023-01-11T02:25:59.800Z,7.80
2023-01-11T02:28:56.223Z,8.50
2023-01-11T02:31:40.414Z,7.67
2023-01-11T02:34:20.844Z,8.40
2023-01-11T02:37:16.406Z,7.80
2023-01-11T02:40:02.623Z,8.10
2023-01-11T02:43:13.898Z,8.07
2023-01-11T02:46:21.792Z,8.27
2023-01-11T02:49:04.628Z,7.40
2023-01-11T02:51:40.777Z,9.90
2023-01-11T02:54:09.978Z,7.50
2023-01-11T02:56:40.950Z,7.90
2023-01-11T02:59:17.863Z,8.47
2023-01-11T03:01:46.042Z,8.20
2023-01-11T03:04:41.890Z,9.60
2023-01-11T03:07:35.720Z,8.27
2023-01-11T03:10:23.699Z,8.73
2023-01-11T03:13:19.723Z,7.60
2023-01-11T03:16:04.561Z,7.13
2023-01-11T03:18:46.111Z,7.70
2023-01-11T03:21:27.817Z,8.23
2023-01-11T03:24:19.620Z,7.30
2023-01-11T03:26:49.107Z,9.13
2023-01-11T03:29:28.259Z,7.23
2023-01-11T03:32:10.704Z,7.30
2023-01-11T03:34:48.703Z,7.70
2023-01-11T03:37:56.637Z,7.60
2023-01-11T03:40:40.004Z,10.13
2023-01-11T03:43:12.735Z,7.83
2023-01-11T03:45:48.507Z,7.60
2023-01-11T03:48:39.832Z,9.47
2023-01-11T03:51:10.568Z,7.87
2023-01-11T03:53:40.055Z,7.17
2023-01-11T03:56:12.368Z,9.30
2023-01-11T03:58:38.988Z,8.10
2023-01-11T04:01:05.948Z,7.30
2023-01-11T04:03:32.506Z,8.70
2023-01-11T04:06:01.305Z,7.70
2023-01-11T04:08:28.080Z,8.47
2023-01-11T04:10:54.576Z,7.73
2023-01-11T04:13:21.035Z,8.00
2023-01-11T04:15:47.535Z,7.77
2023-01-11T04:18:14.070Z,9.50
2023-01-11T04:20:41.082Z,8.27
2023-01-11T04:23:09.628Z,7.80
2023-01-11T04:25:36.067Z,7.43
2023-01-11T04:28:02.502Z,9.50
2023-01-11T04:30:28.931Z,9.83
2023-01-11T04:32:58.228Z,8.57
2023-01-11T04:35:25.246Z,9.47
2023-01-11T04:37:55.838Z,7.97
2023-01-11T04:40:22.538Z,7.97
2023-01-11T04:42:49.058Z,9.93
2023-01-11T04:45:16.344Z,8.90
2023-01-11T04:47:42.753Z,10.27
2023-01-11T04:50:09.955Z,10.60
2023-01-11T04:52:36.439Z,9.67
2023-01-11T04:55:03.169Z,8.60
2023-01-11T04:57:29.866Z,8.87
2023-01-11T04:59:56.426Z,8.57
2023-01-11T05:02:22.862Z,7.87
2023-01-11T05:04:49.334Z,8.20
2023-01-11T05:07:15.823Z,10.83
2023-01-11T05:09:42.308Z,9.43
2023-01-11T05:12:08.964Z,10.63
2023-01-11T05:14:35.444Z,7.73
2023-01-11T05:17:02.014Z,8.00
2023-01-11T05:19:28.471Z,8.30
2023-01-11T05:21:54.872Z,13.40
2023-01-11T05:24:21.286Z,8.90
2023-01-11T05:26:50.122Z,8.93
2023-01-11T05:29:16.629Z,8.80
2023-01-11T05:31:43.412Z,9.73
2023-01-11T05:34:12.384Z,10.37
2023-01-11T05:36:38.928Z,9.13
2023-01-11T05:39:06.283Z,8.50
2023-01-11T05:41:33.581Z,9.77
2023-01-11T05:44:18.650Z,8.40
2023-01-11T05:46:45.318Z,11.10
2023-01-11T05:49:13.966Z,14.93
2023-01-11T05:51:41.536Z,9.47
2023-01-11T05:54:11.746Z,10.63
2023-01-11T05:56:38.365Z,9.23
2023-01-11T05:59:04.926Z,12.23
2023-01-11T06:01:31.601Z,10.93
2023-01-11T06:03:58.084Z,11.03
2023-01-11T06:06:24.697Z,11.37
2023-01-11T06:08:51.220Z,9.63
2023-01-11T06:11:17.748Z,9.80
2023-01-11T06:13:44.235Z,10.00
2023-01-11T06:16:15.884Z,9.43
2023-01-11T06:18:48.339Z,8.33
2023-01-11T06:21:16.020Z,9.87
2023-01-11T06:23:45.153Z,11.57
2023-01-11T06:26:16.666Z,9.73
2023-01-11T06:28:43.858Z,11.00
2023-01-11T06:31:10.966Z,9.50
2023-01-11T06:33:38.026Z,9.70
2023-01-11T06:36:07.405Z,10.17
2023-01-11T06:38:34.473Z,10.50
2023-01-11T06:41:02.456Z,10.77
2023-01-11T06:43:31.082Z,14.53
2023-01-11T06:45:59.059Z,9.33
2023-01-11T06:48:26.594Z,10.03
2023-01-11T06:50:55.733Z,10.63
2023-01-11T06:53:22.738Z,11.13
2023-01-11T06:55:53.474Z,9.97
2023-01-11T06:58:20.954Z,11.37
2023-01-11T07:00:47.476Z,77.07
2023-01-11T07:03:13.998Z,92.77
2023-01-11T07:05:42.188Z,29.53
2023-01-11T07:08:08.651Z,46.90
2023-01-11T07:10:35.155Z,28.47
2023-01-11T07:13:01.746Z,19.17
2023-01-11T07:15:28.278Z,14.87
2023-01-11T07:17:56.155Z,24.63
2023-01-11T07:20:24.285Z,9.10
2023-01-11T07:22:50.992Z,9.43
2023-01-11T07:25:18.221Z,8.70
2023-01-11T07:27:44.821Z,15.30
2023-01-11T07:30:11.758Z,13.73
2023-01-11T07:32:38.515Z,11.97
2023-01-11T07:35:05.295Z,11.63
2023-01-11T07:37:35.197Z,9.40
2023-01-11T07:40:01.640Z,12.33
2023-01-11T07:42:46.743Z,11.07
2023-01-11T07:45:13.235Z,8.00
2023-01-11T07:47:39.862Z,9.93
2023-01-11T07:50:06.995Z,11.83
2023-01-11T07:52:33.451Z,9.20
2023-01-11T07:55:02.685Z,8.80
2023-01-11T07:57:30.532Z,9.67
2023-01-11T07:59:56.989Z,12.70
2023-01-11T08:02:23.590Z,11.07
2023-01-11T08:04:50.371Z,8.33
2023-01-11T08:07:16.971Z,8.30
2023-01-11T08:09:43.431Z,12.23
2023-01-11T08:12:28.453Z,7.80
2023-01-11T08:14:55.000Z,9.37
2023-01-11T08:17:21.465Z,10.27
2023-01-11T08:19:47.909Z,8.80
2023-01-11T08:22:14.339Z,9.60
2023-01-11T08:24:40.858Z,7.97
2023-01-11T08:27:07.402Z,9.20
2023-01-11T08:29:34.099Z,10.03
2023-01-11T08:32:00.721Z,8.00
2023-01-11T08:34:30.413Z,8.73
2023-01-11T08:36:57.595Z,8.27
2023-01-11T08:39:24.776Z,13.30
2023-01-11T08:41:51.299Z,11.57
2023-01-11T08:44:25.464Z,10.30
2023-01-11T08:46:59.495Z,13.10
2023-01-11T08:49:25.922Z,12.57
2023-01-11T08:51:52.407Z,9.97
2023-01-11T08:54:18.878Z,12.30
2023-01-11T08:56:45.415Z,8.80
2023-01-11T08:59:12.074Z,11.80
2023-01-11T09:01:38.690Z,16.10
2023-01-11T09:04:19.196Z,19.07
2023-01-11T09:06:50.455Z,14.60
2023-01-11T09:09:17.050Z,23.47
2023-01-11T09:11:57.023Z,22.97
2023-01-11T09:14:25.591Z,19.33
2023-01-11T09:16:53.051Z,23.07
2023-01-11T09:19:19.903Z,22.70
2023-01-11T09:21:46.806Z,15.93
2023-01-11T09:24:13.760Z,18.97
2023-01-11T09:26:41.544Z,18.27
2023-01-11T09:29:08.634Z,19.80
2023-01-11T09:31:35.285Z,23.10
2023-01-11T09:34:01.686Z,18.33
2023-01-11T09:36:28.998Z,19.40
2023-01-11T09:38:57.777Z,21.03
2023-01-11T09:42:02.040Z,19.80
2023-01-11T09:44:30.741Z,26.30
2023-01-11T09:47:13.862Z,30.73
2023-01-11T09:49:44.698Z,24.60
2023-01-11T09:52:33.193Z,25.60
2023-01-11T09:55:01.471Z,23.20
2023-01-11T09:57:39.848Z,27.50
2023-01-11T10:00:14.559Z,31.73
2023-01-11T10:03:10.938Z,27.30
2023-01-11T10:05:59.511Z,30.80
2023-01-11T10:18:22.885Z,22.97
2023-01-11T10:18:28.495Z,30.90
2023-01-11T10:20:56.100Z,32.70
2023-01-11T10:23:32.096Z,31.50
2023-01-11T10:26:04.568Z,35.83
2023-01-11T10:29:00.695Z,35.40
2023-01-11T10:31:49.267Z,30.37
2023-01-11T10:34:39.250Z,33.83
2023-01-11T10:37:30.225Z,33.33
2023-01-11T10:40:34.767Z,28.90
2023-01-11T10:43:09.207Z,27.73
2023-01-11T10:45:44.359Z,26.57
2023-01-11T10:48:20.880Z,45.83
2023-01-11T10:51:09.595Z,31.33
2023-01-11T10:53:43.398Z,25.17
2023-01-11T10:57:03.108Z,32.10
2023-01-11T11:00:04.542Z,29.50
2023-01-11T11:03:08.565Z,33.33
2023-01-11T11:05:56.615Z,34.37
2023-01-11T11:09:00.909Z,33.33
2023-01-11T11:11:38.231Z,23.90
2023-01-11T11:14:34.639Z,26.50
2023-01-11T11:17:18.419Z,28.00
2023-01-11T11:19:44.948Z,31.70
2023-01-11T11:22:12.093Z,32.80
2023-01-11T11:25:05.030Z,25.93
2023-01-11T11:27:40.205Z,38.03
2023-01-11T11:30:11.272Z,28.10
2023-01-11T11:32:42.682Z,26.53
2023-01-11T11:35:34.098Z,32.93
2023-01-11T11:38:00.629Z,21.40
2023-01-11T11:40:37.739Z,29.23
2023-01-11T11:43:22.707Z,26.60
2023-01-11T11:45:57.501Z,22.10
2023-01-11T11:48:32.540Z,33.93
2023-01-11T11:51:05.395Z,31.73
2023-01-11T11:53:56.201Z,25.50
2023-01-11T11:56:35.499Z,33.67
2023-01-11T11:59:13.576Z,26.57
2023-01-11T12:01:46.935Z,30.47
2023-01-11T12:04:15.189Z,31.17
2023-01-11T12:06:42.062Z,27.00
2023-01-11T12:09:23.093Z,31.37
2023-01-11T12:11:49.929Z,24.37
2023-01-11T12:14:18.984Z,24.57
2023-01-11T12:16:45.993Z,22.93
2023-01-11T12:19:36.660Z,28.27
2023-01-11T12:22:23.846Z,26.83
2023-01-11T12:25:19.231Z,30.70
2023-01-11T12:28:15.726Z,25.67
2023-01-11T12:30:42.229Z,20.17
2023-01-11T12:33:14.461Z,23.17
2023-01-11T12:35:58.702Z,27.53
2023-01-11T12:38:52.349Z,20.03
2023-01-11T12:41:45.003Z,26.13
2023-01-11T12:44:26.296Z,21.47
2023-01-11T12:47:39.840Z,20.80
2023-01-11T12:50:26.666Z,28.63
2023-01-11T12:52:53.079Z,22.83
2023-01-11T12:55:37.233Z,24.77
2023-01-11T12:58:15.089Z,21.10
2023-01-11T13:01:03.805Z,22.73
2023-01-11T13:03:53.292Z,25.57
2023-01-11T13:06:22.835Z,18.13
2023-01-11T13:08:49.628Z,31.67
2023-01-11T13:11:35.072Z,29.87
2023-01-11T13:14:23.401Z,21.53
2023-01-11T13:17:05.316Z,38.43
2023-01-11T13:19:57.151Z,30.53
2023-01-11T13:22:30.405Z,30.67
2023-01-11T13:24:59.610Z,23.23
2023-01-11T13:27:28.927Z,22.20
2023-01-11T13:29:56.680Z,31.30
2023-01-11T13:32:27.685Z,27.33
2023-01-11T13:35:14.517Z,24.73
2023-01-11T13:37:47.446Z,22.37
2023-01-11T13:40:31.682Z,23.90
2023-01-11T13:43:13.392Z,21.20
2023-01-11T13:45:47.452Z,23.43
2023-01-11T13:48:28.513Z,23.63
2023-01-11T13:51:02.908Z,25.17
2023-01-11T13:53:43.777Z,24.97
2023-01-11T13:56:18.595Z,19.00
2023-01-11T13:58:48.115Z,19.03
2023-01-11T14:01:19.387Z,22.03
2023-01-11T14:03:51.860Z,23.53
2023-01-11T14:06:26.577Z,32.27
2023-01-11T14:09:14.672Z,32.13
2023-01-11T14:12:00.120Z,25.53
2023-01-11T14:15:02.901Z,26.20
2023-01-11T14:17:38.507Z,22.60
2023-01-11T14:20:28.082Z,32.00
2023-01-11T14:23:19.969Z,24.73
2023-01-11T14:26:05.655Z,24.77
2023-01-11T14:28:44.606Z,21.50
2023-01-11T14:31:55.208Z,28.07
2023-01-11T14:34:24.669Z,24.30
2023-01-11T14:37:19.108Z,25.50
2023-01-11T14:40:25.767Z,28.47
2023-01-11T14:43:13.980Z,27.97
2023-01-11T14:45:59.377Z,24.33
2023-01-11T14:48:36.075Z,23.90
2023-01-11T14:51:32.492Z,19.47
2023-01-11T14:54:13.514Z,25.50
2023-01-11T14:56:42.961Z,25.40
2023-01-11T14:59:31.210Z,22.27
2023-01-11T15:02:04.056Z,24.70
2023-01-11T15:04:38.162Z,29.60
2023-01-11T15:07:23.458Z,22.00
2023-01-11T15:09:53.529Z,25.80
2023-01-11T15:12:23.356Z,31.90
2023-01-11T15:14:54.357Z,22.90
2023-01-11T15:17:44.130Z,26.90
2023-01-11T15:20:19.131Z,22.90
2023-01-11T15:22:46.578Z,22.33
2023-01-11T15:25:22.971Z,27.13
2023-01-11T15:27:50.790Z,26.73
2023-01-11T15:30:29.903Z,32.97
2023-01-11T15:33:18.375Z,21.60
2023-01-11T15:35:57.320Z,23.60
2023-01-11T15:38:30.518Z,31.90
2023-01-11T15:41:18.423Z,31.93
2023-01-11T15:43:59.585Z,34.77
2023-01-11T15:46:53.487Z,26.33
2023-01-11T15:49:49.928Z,24.90
2023-01-11T15:52:38.155Z,34.70
2023-01-11T15:55:25.566Z,23.63
2023-01-11T15:58:04.572Z,30.83
2023-01-11T16:00:34.047Z,35.70
2023-01-11T16:03:25.603Z,27.03
2023-01-11T16:06:12.301Z,25.57
2023-01-11T16:09:16.050Z,22.77
2023-01-11T16:11:45.998Z,36.07
2023-01-11T16:14:39.949Z,27.50
2023-01-11T16:17:15.265Z,32.17
2023-01-11T16:19:46.003Z,26.53
2023-01-11T16:22:20.303Z,31.40
2023-01-11T16:24:49.545Z,33.57
2023-01-11T16:27:36.857Z,25.43
2023-01-11T16:30:03.565Z,28.67
2023-01-11T16:32:34.825Z,24.73
2023-01-11T16:35:02.618Z,28.63
2023-01-11T16:37:39.555Z,26.30
2023-01-11T16:40:15.046Z,28.37
2023-01-11T16:42:53.713Z,30.13
2023-01-11T16:45:22.984Z,25.27
2023-01-11T16:48:04.537Z,29.00
2023-01-11T16:50:32.108Z,21.53
2023-01-11T16:53:07.369Z,24.40
2023-01-11T16:55:37.879Z,29.03
2023-01-11T16:58:26.110Z,24.80
2023-01-11T17:01:13.272Z,25.23
2023-01-11T17:03:51.260Z,22.63
2023-01-11T17:06:21.938Z,24.97
2023-01-11T17:08:54.283Z,25.13
2023-01-11T17:11:36.122Z,20.20
2023-01-11T17:14:11.732Z,29.10
2023-01-11T17:16:41.633Z,25.00
2023-01-11T17:19:23.321Z,16.20
2023-01-11T17:21:56.790Z,22.93
2023-01-11T17:24:25.947Z,24.00
2023-01-11T17:26:59.245Z,19.73
2023-01-11T17:29:40.859Z,21.67
2023-01-11T17:32:16.264Z,21.00
2023-01-11T17:34:43.484Z,19.90
2023-01-11T17:37:14.745Z,15.97
2023-01-11T17:39:47.812Z,22.33
2023-01-11T17:42:34.712Z,15.00
2023-01-11T17:45:14.818Z,21.30
2023-01-11T17:47:47.346Z,17.43
2023-01-11T17:50:31.963Z,24.87
2023-01-11T17:53:20.981Z,18.47
2023-01-11T17:55:58.808Z,19.10
2023-01-11T17:58:29.252Z,23.63
2023-01-11T18:01:05.153Z,20.83
2023-01-11T18:03:42.983Z,23.07
2023-01-11T18:06:11.810Z,27.30
2023-01-11T18:08:38.339Z,19.83
2023-01-11T18:11:05.155Z,19.60
2023-01-11T18:13:36.434Z,17.10
2023-01-11T18:16:04.209Z,20.03
2023-01-11T18:18:57.144Z,26.60
2023-01-11T18:21:26.542Z,23.07
2023-01-11T18:24:11.420Z,25.33
2023-01-11T18:26:40.371Z,19.57
2023-01-11T18:29:19.280Z,24.00
2023-01-11T18:31:45.872Z,19.20
2023-01-11T18:34:12.359Z,20.90
2023-01-11T18:36:38.780Z,23.17
2023-01-11T18:39:12.173Z,19.10
2023-01-11T18:41:58.312Z,19.20
2023-01-11T18:44:25.041Z,23.80
2023-01-11T18:46:51.708Z,19.20
2023-01-11T18:49:18.125Z,22.37
2023-01-11T18:51:45.242Z,18.67
2023-01-11T18:54:16.583Z,29.00
2023-01-11T18:56:43.081Z,16.57
2023-01-11T18:59:09.809Z,23.60
2023-01-11T19:01:52.651Z,14.50
2023-01-11T19:04:23.755Z,20.80
2023-01-11T19:06:52.309Z,28.07
2023-01-11T19:09:18.893Z,19.17
2023-01-11T19:11:45.402Z,17.67
2023-01-11T19:14:11.900Z,18.50
2023-01-11T19:16:38.332Z,19.87
2023-01-11T19:19:04.809Z,20.83
2023-01-11T19:21:31.311Z,23.70
2023-01-11T19:23:58.406Z,19.03
2023-01-11T19:26:24.968Z,22.43
2023-01-11T19:28:51.419Z,22.20
2023-01-11T19:31:18.049Z,20.97
2023-01-11T19:33:44.519Z,18.53
2023-01-11T19:36:11.230Z,19.17
2023-01-11T19:38:39.132Z,17.70
2023-01-11T19:41:07.925Z,26.63
2023-01-11T19:43:35.036Z,29.17
2023-01-11T19:46:04.634Z,25.93
2023-01-11T19:48:34.958Z,26.00
2023-01-11T19:51:13.089Z,25.07
2023-01-11T19:53:39.570Z,22.10
2023-01-11T19:56:08.488Z,19.20
2023-01-11T19:58:38.420Z,23.63
2023-01-11T20:01:10.810Z,20.30
2023-01-11T20:03:37.804Z,17.60
2023-01-11T20:06:08.084Z,18.73
2023-01-11T20:08:38.397Z,22.97
2023-01-11T20:11:10.682Z,24.40
2023-01-11T20:13:37.261Z,18.60
2023-01-11T20:16:13.736Z,31.40
2023-01-11T20:18:42.350Z,29.60
2023-01-11T20:21:13.612Z,21.97
2023-01-11T20:23:40.105Z,17.77
2023-01-11T20:26:07.844Z,23.30
2023-01-11T20:28:34.584Z,26.97
2023-01-11T20:31:06.194Z,19.00
2023-01-11T20:33:32.686Z,27.77
2023-01-11T20:35:59.193Z,18.97
2023-01-11T20:38:25.899Z,16.27
2023-01-11T20:40:52.423Z,16.10
2023-01-11T20:43:19.680Z,18.57
2023-01-11T20:45:55.240Z,19.80
2023-01-11T20:48:21.675Z,17.17
2023-01-11T20:50:48.164Z,26.07
2023-01-11T20:53:15.012Z,20.00
2023-01-11T20:55:41.502Z,25.37
2023-01-11T20:58:09.865Z,25.60
2023-01-11T21:00:36.284Z,19.37
2023-01-11T21:03:02.793Z,23.50
2023-01-11T21:05:29.341Z,21.60
2023-01-11T21:07:55.804Z,28.33
2023-01-11T21:10:22.369Z,28.60
2023-01-11T21:12:50.507Z,22.03
2023-01-11T21:15:16.993Z,22.93
2023-01-11T21:17:43.813Z,31.90
2023-01-11T21:20:10.920Z,23.30
2023-01-11T21:22:37.373Z,23.93
2023-01-11T21:25:04.010Z,21.10
2023-01-11T21:27:30.453Z,24.63
2023-01-11T21:29:56.956Z,20.70
2023-01-11T21:32:23.631Z,18.87
2023-01-11T21:34:50.125Z,19.53
2023-01-11T21:37:16.631Z,22.83
2023-01-11T21:39:43.045Z,19.10
2023-01-11T21:42:09.609Z,15.00
2023-01-11T21:44:36.044Z,19.63
2023-01-11T21:47:05.077Z,23.67
2023-01-11T21:49:32.275Z,16.23
2023-01-11T21:51:59.158Z,21.43
2023-01-11T21:54:25.607Z,18.20
2023-01-11T21:56:52.251Z,22.23
2023-01-11T21:59:20.233Z,20.97
2023-01-11T22:01:49.146Z,28.80
2023-01-11T22:04:18.103Z,19.90
2023-01-11T22:06:54.002Z,17.70
2023-01-11T22:09:21.440Z,23.97
2023-01-11T22:11:47.944Z,17.87
2023-01-11T22:14:14.396Z,21.07
2023-01-11T22:16:40.916Z,20.60
2023-01-11T22:19:08.467Z,26.13
2023-01-11T22:21:36.156Z,19.93
2023-01-11T22:24:03.452Z,18.90
2023-01-11T22:26:33.299Z,22.73
2023-01-11T22:29:11.965Z,28.40
2023-01-11T22:31:50.855Z,24.73
2023-01-11T22:34:18.406Z,23.03
2023-01-11T22:36:45.683Z,20.00
2023-01-11T22:39:13.524Z,16.87
2023-01-11T22:41:40.577Z,18.97
2023-01-11T22:44:09.940Z,25.83
2023-01-11T22:46:36.838Z,21.10
2023-01-11T22:49:05.942Z,20.67
2023-01-11T22:51:32.911Z,20.00
2023-01-11T22:53:59.417Z,21.00
2023-01-11T22:56:26.862Z,23.43
2023-01-11T22:58:53.992Z,16.47
2023-01-11T23:01:25.078Z,23.93
2023-01-11T23:03:52.820Z,16.90
2023-01-11T23:06:23.381Z,24.53
2023-01-11T23:08:50.168Z,21.53
2023-01-11T23:11:41.505Z,19.00
2023-01-11T23:14:11.648Z,15.43
2023-01-11T23:16:38.658Z,18.10
2023-01-11T23:19:07.214Z,26.47
2023-01-11T23:21:34.585Z,19.00
2023-01-11T23:24:02.261Z,31.83
2023-01-11T23:26:29.329Z,25.20
2023-01-11T23:28:55.963Z,15.60
2023-01-11T23:31:24.895Z,20.03
2023-01-11T23:33:54.472Z,17.70
2023-01-11T23:36:22.877Z,23.73
2023-01-11T23:38:49.594Z,18.00
2023-01-11T23:41:37.399Z,18.83
2023-01-11T23:44:11.639Z,18.57
2023-01-11T23:46:57.824Z,22.23
2023-01-11T23:49:27.422Z,20.67
2023-01-11T23:51:54.787Z,15.80
2023-01-11T23:54:21.900Z,25.20
2023-01-11T23:56:49.002Z,19.93
2023-01-11T23:59:15.422Z,23.00
